createdAt,value
2022-10-09T00:01:31.380Z,10.35
2022-10-09T00:03:58.567Z,11.82
2022-10-09T00:06:28.437Z,9.13
2022-10-09T00:08:54.886Z,10.02
2022-10-09T00:11:24.345Z,10.73
2022-10-09T00:13:52.010Z,9.65
2022-10-09T00:16:19.951Z,8.32
2022-10-09T00:18:46.521Z,13.10
2022-10-09T00:21:23.214Z,9.55
2022-10-09T00:23:50.661Z,9.32
2022-10-09T00:26:17.997Z,11.07
2022-10-09T00:28:44.669Z,10.70
2022-10-09T00:31:11.976Z,9.38
2022-10-09T00:33:38.708Z,7.90
2022-10-09T00:36:14.020Z,12.90
2022-10-09T00:38:40.483Z,10.63
2022-10-09T00:41:07.412Z,7.40
2022-10-09T00:44:01.377Z,13.95
2022-10-09T00:46:45.356Z,9.80
2022-10-09T00:49:20.964Z,11.05
2022-10-09T00:51:49.919Z,10.88
2022-10-09T00:54:19.588Z,11.07
2022-10-09T00:56:46.094Z,6.93
2022-10-09T00:59:14.901Z,10.05
2022-10-09T01:01:42.009Z,10.68
2022-10-09T01:04:08.630Z,11.32
2022-10-09T01:07:08.296Z,8.05
2022-10-09T01:09:49.277Z,10.95
2022-10-09T01:12:39.732Z,10.48
2022-10-09T01:15:15.106Z,11.43
2022-10-09T01:18:02.885Z,8.07
2022-10-09T01:20:32.511Z,12.75
2022-10-09T01:23:06.826Z,11.48
2022-10-09T01:25:45.962Z,11.40
2022-10-09T01:28:14.461Z,6.97
2022-10-09T01:30:41.690Z,12.95
2022-10-09T01:33:09.278Z,11.82
2022-10-09T01:35:35.928Z,11.15
2022-10-09T01:38:03.842Z,9.38
2022-10-09T01:40:30.935Z,10.93
2022-10-09T01:42:58.274Z,10.27
2022-10-09T01:45:24.910Z,9.18
2022-10-09T01:47:51.349Z,7.78
2022-10-09T01:50:26.493Z,8.88
2022-10-09T01:52:56.696Z,8.45
2022-10-09T01:55:36.240Z,10.25
2022-10-09T01:58:21.853Z,12.70
2022-10-09T02:00:57.996Z,7.65
2022-10-09T02:03:27.180Z,10.63
2022-10-09T02:05:55.239Z,8.25
2022-10-09T02:08:23.737Z,10.50
2022-10-09T02:10:54.208Z,7.80
2022-10-09T02:13:21.291Z,6.25
2022-10-09T02:15:51.999Z,8.00
2022-10-09T02:18:25.778Z,12.35
2022-10-09T02:20:56.776Z,8.60
2022-10-09T02:23:24.317Z,11.65
2022-10-09T02:25:50.778Z,9.43
2022-10-09T02:28:18.558Z,10.00
2022-10-09T02:31:05.658Z,9.30
2022-10-09T02:33:34.117Z,10.88
2022-10-09T02:36:01.422Z,7.75
2022-10-09T02:38:27.977Z,7.88
2022-10-09T02:40:59.409Z,9.18
2022-10-09T02:43:26.201Z,10.75
2022-10-09T02:45:52.660Z,13.10
2022-10-09T02:48:19.312Z,12.20
2022-10-09T02:50:45.868Z,14.57
2022-10-09T02:53:12.274Z,7.60
2022-10-09T02:55:38.714Z,11.30
2022-10-09T02:58:05.130Z,8.77
2022-10-09T03:00:31.586Z,12.75
2022-10-09T03:02:58.088Z,11.75
2022-10-09T03:05:24.624Z,12.75
2022-10-09T03:07:56.365Z,12.57
2022-10-09T03:10:22.844Z,10.35
2022-10-09T03:12:49.690Z,8.73
2022-10-09T03:15:16.587Z,9.55
2022-10-09T03:17:43.331Z,6.35
2022-10-09T03:20:09.811Z,7.82
2022-10-09T03:22:36.238Z,9.68
2022-10-09T03:25:02.697Z,9.88
2022-10-09T03:27:30.803Z,17.45
2022-10-09T03:29:58.527Z,10.68
2022-10-09T03:32:25.761Z,8.38
2022-10-09T03:34:54.650Z,8.55
2022-10-09T03:37:21.083Z,9.20
2022-10-09T03:39:47.646Z,7.22
2022-10-09T03:42:14.070Z,5.25
2022-10-09T03:44:40.486Z,11.05
2022-10-09T03:47:06.945Z,8.27
2022-10-09T03:49:33.443Z,9.13
2022-10-09T03:52:00.665Z,9.48
2022-10-09T03:54:27.141Z,15.60
2022-10-09T03:56:53.579Z,8.40
2022-10-09T03:59:19.974Z,10.32
2022-10-09T04:01:46.682Z,8.20
2022-10-09T04:04:13.131Z,7.90
2022-10-09T04:06:39.940Z,11.60
2022-10-09T04:09:06.372Z,11.52
2022-10-09T04:11:32.801Z,10.90
2022-10-09T04:14:00.277Z,9.70
2022-10-09T04:16:26.807Z,10.00
2022-10-09T04:18:53.458Z,12.30
2022-10-09T04:21:19.891Z,10.07
2022-10-09T04:23:46.298Z,11.23
2022-10-09T04:26:13.271Z,7.05
2022-10-09T04:28:39.865Z,10.10
2022-10-09T04:31:06.443Z,10.00
2022-10-09T04:33:33.001Z,9.95
2022-10-09T04:35:59.826Z,8.07
2022-10-09T04:38:26.489Z,8.10
2022-10-09T04:41:04.782Z,11.25
2022-10-09T04:45:58.509Z,9.27
2022-10-09T04:48:25.635Z,7.90
2022-10-09T04:50:52.217Z,6.97
2022-10-09T04:53:18.725Z,8.88
2022-10-09T04:55:45.329Z,10.50
2022-10-09T04:58:12.878Z,6.85
2022-10-09T05:00:44.683Z,9.20
2022-10-09T05:03:11.877Z,9.77
2022-10-09T05:05:38.642Z,8.25
2022-10-09T05:08:05.502Z,9.68
2022-10-09T05:10:32.662Z,12.52
2022-10-09T05:12:59.955Z,9.95
2022-10-09T05:15:26.795Z,11.73
2022-10-09T05:17:53.257Z,10.88
2022-10-09T05:20:19.873Z,12.43
2022-10-09T05:22:47.481Z,9.23
2022-10-09T05:25:14.286Z,10.55
2022-10-09T05:27:40.683Z,11.75
2022-10-09T05:30:07.752Z,8.50
2022-10-09T05:32:34.211Z,7.55
2022-10-09T05:35:00.649Z,9.50
2022-10-09T05:37:27.075Z,7.90
2022-10-09T05:39:53.513Z,7.97
2022-10-09T05:42:19.906Z,7.90
2022-10-09T05:44:47.599Z,7.40
2022-10-09T05:47:17.979Z,7.75
2022-10-09T05:49:44.405Z,9.95
2022-10-09T05:52:10.847Z,12.23
2022-10-09T05:54:37.290Z,10.40
2022-10-09T05:57:04.927Z,7.22
2022-10-09T05:59:33.706Z,6.38
2022-10-09T06:02:00.806Z,11.48
2022-10-09T06:04:27.923Z,11.13
2022-10-09T06:06:54.323Z,10.75
2022-10-09T06:09:23.698Z,9.10
2022-10-09T06:11:51.039Z,9.48
2022-10-09T06:14:17.871Z,8.05
2022-10-09T06:16:45.630Z,10.75
2022-10-09T06:19:14.685Z,16.20
2022-10-09T06:21:41.393Z,9.48
2022-10-09T06:24:08.270Z,9.45
2022-10-09T06:26:34.991Z,8.20
2022-10-09T06:29:02.467Z,15.68
2022-10-09T06:31:31.492Z,10.00
2022-10-09T06:34:03.087Z,10.68
2022-10-09T06:36:32.037Z,14.98
2022-10-09T06:39:03.284Z,11.80
2022-10-09T06:41:30.136Z,9.63
2022-10-09T06:43:58.830Z,16.75
2022-10-09T06:46:34.543Z,13.48
2022-10-09T06:49:01.936Z,12.38
2022-10-09T06:51:29.438Z,14.43
2022-10-09T06:53:58.059Z,608.95
2022-10-09T06:56:27.019Z,1999.90
2022-10-09T06:58:53.876Z,1999.90
2022-10-09T07:01:26.924Z,1999.90
2022-10-09T07:03:56.237Z,1356.70
2022-10-09T07:06:25.760Z,8.65
2022-10-09T07:08:56.669Z,10.00
2022-10-09T07:11:29.337Z,8.23
2022-10-09T07:14:00.848Z,6.45
2022-10-09T07:16:29.204Z,7.03
2022-10-09T07:19:01.170Z,8.80
2022-10-09T07:21:27.668Z,5.95
2022-10-09T07:23:54.177Z,6.55
2022-10-09T07:26:25.408Z,13.23
2022-10-09T07:31:19.008Z,8.07
2022-10-09T07:33:49.559Z,9.10
2022-10-09T07:36:18.614Z,9.40
2022-10-09T07:38:49.662Z,8.50
2022-10-09T07:43:42.631Z,6.65
2022-10-09T07:46:15.431Z,10.35
2022-10-09T07:48:42.144Z,9.30
2022-10-09T07:51:09.849Z,8.23
2022-10-09T07:53:37.486Z,9.50
2022-10-09T07:56:04.667Z,9.40
2022-10-09T07:58:31.159Z,6.30
2022-10-09T08:01:03.700Z,7.25
2022-10-09T08:03:30.407Z,8.23
2022-10-09T08:05:57.066Z,7.88
2022-10-09T08:08:23.667Z,8.07
2022-10-09T08:10:50.193Z,8.73
2022-10-09T08:13:17.052Z,8.60
2022-10-09T08:15:44.340Z,15.00
2022-10-09T08:18:11.782Z,9.73
2022-10-09T08:20:39.110Z,11.15
2022-10-09T08:23:06.012Z,10.25
2022-10-09T08:25:36.912Z,6.28
2022-10-09T08:28:04.334Z,8.73
2022-10-09T08:30:30.841Z,7.47
2022-10-09T08:32:57.265Z,9.65
2022-10-09T08:35:23.736Z,7.68
2022-10-09T08:37:50.297Z,10.27
2022-10-09T08:40:21.411Z,7.80
2022-10-09T08:42:56.094Z,10.43
2022-10-09T08:45:22.566Z,9.43
2022-10-09T08:48:04.192Z,10.88
2022-10-09T08:50:34.993Z,12.50
2022-10-09T08:53:23.911Z,9.68
2022-10-09T08:55:55.346Z,10.05
2022-10-09T08:58:25.157Z,11.25
2022-10-09T09:01:13.556Z,11.57
2022-10-09T09:04:12.572Z,8.88
2022-10-09T09:06:57.753Z,7.82
2022-10-09T09:09:52.400Z,11.75
2022-10-09T09:12:29.789Z,12.80
2022-10-09T09:18:19.312Z,10.63
2022-10-09T09:20:57.880Z,12.73
2022-10-09T09:23:29.197Z,9.75
2022-10-09T09:25:56.426Z,10.35
2022-10-09T09:28:30.409Z,12.02
2022-10-09T09:31:08.859Z,9.13
2022-10-09T09:33:44.842Z,7.72
2022-10-09T09:36:28.196Z,9.77
2022-10-09T09:39:40.772Z,8.90
2022-10-09T09:41:43.111Z,8.45
2022-10-09T09:44:14.587Z,12.32
2022-10-09T09:46:42.206Z,10.73
2022-10-09T09:49:19.691Z,9.07
2022-10-09T09:51:48.197Z,7.05
2022-10-09T09:54:23.356Z,10.68
2022-10-09T09:57:11.875Z,11.15
2022-10-09T09:59:43.983Z,9.20
2022-10-09T10:02:17.976Z,8.88
2022-10-09T10:04:53.931Z,10.02
2022-10-09T10:07:38.224Z,8.95
2022-10-09T10:10:25.954Z,9.90
2022-10-09T10:12:54.905Z,8.23
2022-10-09T10:15:32.904Z,16.58
2022-10-09T10:18:04.016Z,9.38
2022-10-09T10:20:32.551Z,9.75
2022-10-09T10:23:00.501Z,9.50
2022-10-09T10:25:32.119Z,9.90
2022-10-09T10:28:05.654Z,9.27
2022-10-09T10:30:34.182Z,8.57
2022-10-09T10:33:19.123Z,10.02
2022-10-09T10:35:49.039Z,10.63
2022-10-09T10:38:25.392Z,9.35
2022-10-09T10:41:14.118Z,9.27
2022-10-09T10:43:44.061Z,10.25
2022-10-09T10:46:30.346Z,11.82
2022-10-09T10:48:59.977Z,12.38
2022-10-09T10:51:32.536Z,9.40
2022-10-09T10:54:18.146Z,9.10
2022-10-09T10:56:49.265Z,6.63
2022-10-09T10:59:36.008Z,7.85
2022-10-09T11:02:08.384Z,9.38
2022-10-09T11:04:55.096Z,8.98
2022-10-09T11:07:43.738Z,5.88
2022-10-09T11:10:22.560Z,9.15
2022-10-09T11:12:58.065Z,8.48
2022-10-09T11:15:49.921Z,9.60
2022-10-09T11:18:35.192Z,8.15
2022-10-09T11:21:21.192Z,8.20
2022-10-09T11:24:18.575Z,8.65
2022-10-09T11:26:52.089Z,7.30
2022-10-09T11:29:28.587Z,6.53
2022-10-09T11:32:04.129Z,11.57
2022-10-09T11:34:34.981Z,11.38
2022-10-09T11:37:02.587Z,10.65
2022-10-09T11:39:32.380Z,6.88
2022-10-09T11:41:59.700Z,9.13
2022-10-09T11:44:49.942Z,6.72
2022-10-09T11:47:22.908Z,16.42
2022-10-09T11:50:01.949Z,8.02
2022-10-09T11:52:47.060Z,7.25
2022-10-09T11:55:17.693Z,6.88
2022-10-09T12:00:11.155Z,6.18
2022-10-09T12:02:38.046Z,6.70
2022-10-09T12:05:35.416Z,6.50
2022-10-09T12:08:19.517Z,7.57
2022-10-09T12:10:52.893Z,8.32
2022-10-09T12:13:44.347Z,10.07
2022-10-09T12:16:41.865Z,7.55
2022-10-09T12:19:22.552Z,11.38
2022-10-09T12:21:54.564Z,6.75
2022-10-09T12:24:25.018Z,7.10
2022-10-09T12:26:54.675Z,7.65
2022-10-09T12:29:35.968Z,7.90
2022-10-09T12:32:06.494Z,6.10
2022-10-09T12:34:39.224Z,7.60
2022-10-09T12:37:17.343Z,6.65
2022-10-09T12:39:44.451Z,9.73
2022-10-09T12:42:18.677Z,6.75
2022-10-09T12:44:46.573Z,6.35
2022-10-09T12:47:21.856Z,5.88
2022-10-09T12:49:56.302Z,6.75
2022-10-09T12:52:22.709Z,5.80
2022-10-09T12:54:49.108Z,7.03
2022-10-09T12:57:17.360Z,6.72
2022-10-09T12:59:46.207Z,7.45
2022-10-09T13:02:16.227Z,8.73
2022-10-09T13:04:53.936Z,9.98
2022-10-09T13:07:24.815Z,6.70
2022-10-09T13:09:58.739Z,7.47
2022-10-09T13:12:27.446Z,8.85
2022-10-09T13:14:56.790Z,8.18
2022-10-09T13:20:03.792Z,7.10
2022-10-09T13:22:33.659Z,6.03
2022-10-09T13:25:02.252Z,5.93
2022-10-09T13:27:31.734Z,8.57
2022-10-09T13:29:58.687Z,8.85
2022-10-09T13:32:25.149Z,7.72
2022-10-09T13:34:54.991Z,10.82
2022-10-09T13:37:23.506Z,8.77
2022-10-09T13:39:54.644Z,7.60
2022-10-09T13:42:22.651Z,9.38
2022-10-09T13:44:49.092Z,6.75
2022-10-09T13:47:17.671Z,8.13
2022-10-09T13:49:46.018Z,7.78
2022-10-09T13:52:12.569Z,6.80
2022-10-09T13:54:39.011Z,4.50
2022-10-09T13:57:05.658Z,6.88
2022-10-09T13:59:32.340Z,9.20
2022-10-09T14:01:59.156Z,7.78
2022-10-09T14:04:27.000Z,8.27
2022-10-09T14:06:53.510Z,8.30
2022-10-09T14:09:19.943Z,8.80
2022-10-09T14:11:46.537Z,6.57
2022-10-09T14:14:13.256Z,8.32
2022-10-09T14:16:41.226Z,6.43
2022-10-09T14:19:07.671Z,7.63
2022-10-09T14:21:34.084Z,6.18
2022-10-09T14:24:03.372Z,6.72
2022-10-09T14:26:30.615Z,7.40
2022-10-09T14:29:00.287Z,8.05
2022-10-09T14:31:26.721Z,7.35
2022-10-09T14:33:56.805Z,6.15
2022-10-09T14:36:23.323Z,10.05
2022-10-09T14:38:49.814Z,7.50
2022-10-09T14:41:17.967Z,7.75
2022-10-09T14:43:48.771Z,7.72
2022-10-09T14:48:48.757Z,4.72
2022-10-09T14:51:17.475Z,6.20
2022-10-09T14:53:44.135Z,8.77
2022-10-09T14:56:17.682Z,8.02
2022-10-09T14:58:44.400Z,9.00
2022-10-09T15:01:15.569Z,10.30
2022-10-09T15:03:42.500Z,7.57
2022-10-09T15:06:11.127Z,9.52
2022-10-09T15:08:39.804Z,5.53
2022-10-09T15:11:06.578Z,8.85
2022-10-09T15:13:36.686Z,7.18
2022-10-09T15:16:08.447Z,7.15
2022-10-09T15:18:35.318Z,7.70
2022-10-09T15:21:01.726Z,8.85
2022-10-09T15:23:28.874Z,11.27
2022-10-09T15:25:57.754Z,6.93
2022-10-09T15:28:24.668Z,8.68
2022-10-09T15:30:54.033Z,7.18
2022-10-09T15:33:22.337Z,4.78
2022-10-09T15:35:51.221Z,8.45
2022-10-09T15:38:20.099Z,5.50
2022-10-09T15:40:53.269Z,5.38
2022-10-09T15:43:22.253Z,7.20
2022-10-09T15:45:48.896Z,7.00
2022-10-09T15:48:21.249Z,10.00
2022-10-09T15:50:50.634Z,10.63
2022-10-09T15:53:19.106Z,7.25
2022-10-09T15:55:49.461Z,7.32
2022-10-09T15:58:16.848Z,7.57
2022-10-09T16:00:47.325Z,9.43
2022-10-09T16:03:14.837Z,8.65
2022-10-09T16:05:43.303Z,5.93
2022-10-09T16:08:13.939Z,5.90
2022-10-09T16:10:49.195Z,8.73
2022-10-09T16:13:16.456Z,8.98
2022-10-09T16:15:43.593Z,8.25
2022-10-09T16:18:10.564Z,8.52
2022-10-09T16:20:38.715Z,9.50
2022-10-09T16:23:06.592Z,9.43
2022-10-09T16:25:33.163Z,9.57
2022-10-09T16:28:00.024Z,7.75
2022-10-09T16:30:26.634Z,5.97
2022-10-09T16:32:53.661Z,8.70
2022-10-09T16:35:22.106Z,9.00
2022-10-09T16:37:48.567Z,8.80
2022-10-09T16:40:15.975Z,8.57
2022-10-09T16:42:42.393Z,4.82
2022-10-09T16:45:09.635Z,10.07
2022-10-09T16:47:36.064Z,8.90
2022-10-09T16:50:02.677Z,7.00
2022-10-09T16:52:29.232Z,10.00
2022-10-09T16:54:59.550Z,6.28
2022-10-09T16:57:26.746Z,11.77
2022-10-09T16:59:53.165Z,5.53
2022-10-09T17:02:19.601Z,10.90
2022-10-09T17:04:46.179Z,9.85
2022-10-09T17:07:13.022Z,6.07
2022-10-09T17:09:40.508Z,7.13
2022-10-09T17:12:13.141Z,10.27
2022-10-09T17:14:40.670Z,13.73
2022-10-09T17:17:09.771Z,8.20
2022-10-09T17:19:37.576Z,8.32
2022-10-09T17:22:05.530Z,9.20
2022-10-09T17:24:33.643Z,9.00
2022-10-09T17:27:00.113Z,6.88
2022-10-09T17:29:27.125Z,10.05
2022-10-09T17:31:53.552Z,9.60
2022-10-09T17:34:20.248Z,12.40
2022-10-09T17:36:46.711Z,17.63
2022-10-09T17:39:15.969Z,12.52
2022-10-09T17:41:45.688Z,12.38
2022-10-09T17:44:12.852Z,15.10
2022-10-09T17:46:42.572Z,14.25
2022-10-09T17:49:09.914Z,8.57
2022-10-09T17:51:39.677Z,11.40
2022-10-09T17:54:11.907Z,15.15
2022-10-09T17:56:39.024Z,12.32
2022-10-09T17:59:05.833Z,10.55
2022-10-09T18:01:32.641Z,11.68
2022-10-09T18:03:59.566Z,14.73
2022-10-09T18:06:27.069Z,21.35
2022-10-09T18:08:55.544Z,10.77
2022-10-09T18:11:25.989Z,10.73
2022-10-09T18:13:52.810Z,11.57
2022-10-09T18:16:24.081Z,9.23
2022-10-09T18:18:50.563Z,9.05
2022-10-09T18:21:17.372Z,8.15
2022-10-09T18:23:46.384Z,6.55
2022-10-09T18:26:16.168Z,8.38
2022-10-09T18:28:44.813Z,8.85
2022-10-09T18:31:20.889Z,10.40
2022-10-09T18:33:47.722Z,7.88
2022-10-09T18:36:19.888Z,9.48
2022-10-09T18:38:51.765Z,9.57
2022-10-09T18:41:19.267Z,8.77
2022-10-09T18:43:46.121Z,9.07
2022-10-09T18:46:13.363Z,10.30
2022-10-09T18:48:41.025Z,12.82
2022-10-09T18:51:13.640Z,10.18
2022-10-09T18:53:42.682Z,12.02
2022-10-09T18:56:10.269Z,8.15
2022-10-09T18:58:38.998Z,12.00
2022-10-09T19:01:07.628Z,14.60
2022-10-09T19:03:34.654Z,15.65
2022-10-09T19:06:01.176Z,9.52
2022-10-09T19:08:27.583Z,9.77
2022-10-09T19:10:54.172Z,12.00
2022-10-09T19:13:25.077Z,12.25
2022-10-09T19:15:53.325Z,12.32
2022-10-09T19:18:22.681Z,12.10
2022-10-09T19:20:49.727Z,13.32
2022-10-09T19:23:17.229Z,14.35
2022-10-09T19:25:55.061Z,19.73
2022-10-09T19:28:22.655Z,20.25
2022-10-09T19:30:50.323Z,17.65
2022-10-09T19:33:17.912Z,17.92
2022-10-09T19:35:53.578Z,14.45
2022-10-09T19:38:20.759Z,13.80
2022-10-09T19:40:47.309Z,18.17
2022-10-09T19:43:15.520Z,20.33
2022-10-09T19:45:42.313Z,25.92
2022-10-09T19:48:09.406Z,19.27
2022-10-09T19:50:46.061Z,15.25
2022-10-09T19:53:13.632Z,19.00
2022-10-09T19:55:41.399Z,15.15
2022-10-09T19:58:08.861Z,17.27
2022-10-09T20:00:41.988Z,14.52
2022-10-09T20:03:08.417Z,18.38
2022-10-09T20:05:35.200Z,11.77
2022-10-09T20:08:01.650Z,15.38
2022-10-09T20:10:30.912Z,15.77
2022-10-09T20:12:59.695Z,15.70
2022-10-09T20:15:28.438Z,12.00
2022-10-09T20:17:56.520Z,22.30
2022-10-09T20:20:22.916Z,9.70
2022-10-09T20:22:52.639Z,13.27
2022-10-09T20:25:22.041Z,13.60
2022-10-09T20:27:48.508Z,16.17
2022-10-09T20:30:15.442Z,23.35
2022-10-09T20:32:42.151Z,12.85
2022-10-09T20:35:08.738Z,12.45
2022-10-09T20:37:35.286Z,14.20
2022-10-09T20:40:01.997Z,16.83
2022-10-09T20:42:28.558Z,20.02
2022-10-09T20:44:55.000Z,17.48
2022-10-09T20:47:21.721Z,17.80
2022-10-09T20:49:48.232Z,14.63
2022-10-09T20:52:15.662Z,11.60
2022-10-09T20:54:42.140Z,18.00
2022-10-09T20:57:08.582Z,16.83
2022-10-09T20:59:35.236Z,15.48
2022-10-09T21:02:01.655Z,15.23
2022-10-09T21:04:28.109Z,16.35
2022-10-09T21:06:54.654Z,13.73
2022-10-09T21:09:22.478Z,16.23
2022-10-09T21:11:50.512Z,11.70
2022-10-09T21:14:17.198Z,15.65
2022-10-09T21:16:43.692Z,15.10
2022-10-09T21:19:11.515Z,14.18
2022-10-09T21:21:37.936Z,15.70
2022-10-09T21:24:04.491Z,10.18
2022-10-09T21:26:35.582Z,16.88
2022-10-09T21:29:06.663Z,11.40
2022-10-09T21:31:33.485Z,16.67
2022-10-09T21:34:00.763Z,14.27
2022-10-09T21:36:32.622Z,14.02
2022-10-09T21:38:59.716Z,18.25
2022-10-09T21:41:26.516Z,13.40
2022-10-09T21:43:53.020Z,13.23
2022-10-09T21:46:20.136Z,16.45
2022-10-09T21:48:46.555Z,12.23
2022-10-09T21:51:13.024Z,10.30
2022-10-09T21:53:39.519Z,11.23
2022-10-09T21:56:09.149Z,17.83
2022-10-09T21:58:40.259Z,15.82
2022-10-09T22:01:07.561Z,15.15
2022-10-09T22:03:35.965Z,10.32
2022-10-09T22:06:09.317Z,16.52
2022-10-09T22:08:36.024Z,16.23
2022-10-09T22:11:08.058Z,12.43
2022-10-09T22:13:35.953Z,12.23
2022-10-09T22:16:10.361Z,11.52
2022-10-09T22:18:37.358Z,15.02
2022-10-09T22:21:13.275Z,13.80
2022-10-09T22:23:40.384Z,14.18
2022-10-09T22:26:10.151Z,14.65
2022-10-09T22:28:36.777Z,9.40
2022-10-09T22:31:06.832Z,13.45
2022-10-09T22:33:34.507Z,8.50
2022-10-09T22:36:10.445Z,14.50
2022-10-09T22:38:38.064Z,14.13
2022-10-09T22:41:11.281Z,12.05
2022-10-09T22:43:39.321Z,10.65
2022-10-09T22:46:11.060Z,10.30
2022-10-09T22:48:38.044Z,13.27
2022-10-09T22:51:07.117Z,10.98
2022-10-09T22:53:34.874Z,7.93
2022-10-09T22:56:01.289Z,10.05
2022-10-09T22:58:27.762Z,11.05
2022-10-09T23:00:54.196Z,7.95
2022-10-09T23:03:21.985Z,8.68
2022-10-09T23:05:48.413Z,8.13
2022-10-09T23:08:14.979Z,9.93
2022-10-09T23:10:41.420Z,11.90
2022-10-09T23:13:07.886Z,13.57
2022-10-09T23:15:37.477Z,8.02
2022-10-09T23:18:04.897Z,11.02
2022-10-09T23:20:31.425Z,10.23
2022-10-09T23:22:57.858Z,9.02
2022-10-09T23:25:24.293Z,9.77
2022-10-09T23:27:50.686Z,12.15
2022-10-09T23:30:17.081Z,13.27
2022-10-09T23:32:44.574Z,12.68
2022-10-09T23:35:10.989Z,8.65
2022-10-09T23:37:37.438Z,9.57
2022-10-09T23:40:04.591Z,10.90
2022-10-09T23:42:31.016Z,8.75
2022-10-09T23:44:57.450Z,13.50
2022-10-09T23:47:23.891Z,8.20
2022-10-09T23:49:50.320Z,8.50
2022-10-09T23:52:16.767Z,16.75
2022-10-09T23:54:43.259Z,12.80
2022-10-09T23:57:09.692Z,10.82
2022-10-09T23:59:36.411Z,12.27
